Time;durP1;ratioP1;P1;durP2;ratioP2;P2;SDS_P1;SDS_P2;PMS_P1;PMS_P2;Temp;Humidity;BMP_temperature;BMP_pressure;BME280_temperature;BME280_humidity;BME280_pressure;Samples;Min_cycle;Max_cycle;Signal;HPM_P1;HPM_P2
2023/04/27 00:00:02;;;;;;;4.10;3.80;;;6.90;60.00;;;;;;6222532;28;20790;-86
2023/04/27 00:03:06;;;;;;;4.27;3.87;;;6.90;60.30;;;;;;6237217;28;20261;-86
2023/04/27 00:06:09;;;;;;;5.27;4.03;;;6.90;59.70;;;;;;6235783;28;20637;-85
2023/04/27 00:09:13;;;;;;;7.13;4.13;;;7.00;59.70;;;;;;6235645;28;20242;-87
2023/04/27 00:12:17;;;;;;;6.87;3.70;;;6.90;59.90;;;;;;6241590;28;20234;-86
2023/04/27 00:15:21;;;;;;;4.00;3.80;;;6.90;59.90;;;;;;6234717;28;20323;-84
2023/04/27 00:18:24;;;;;;;3.60;3.40;;;6.90;59.60;;;;;;6243017;28;20737;-84
2023/04/27 00:21:27;;;;;;;4.30;4.03;;;6.90;59.70;;;;;;6239042;28;20268;-85
2023/04/27 00:24:30;;;;;;;4.10;3.83;;;6.90;59.90;;;;;;6238280;28;20234;-85
2023/04/27 00:27:35;;;;;;;6.90;4.23;;;6.80;59.70;;;;;;6241788;28;20238;-85
2023/04/27 00:30:38;;;;;;;4.20;3.83;;;6.80;59.70;;;;;;6229806;28;20714;-84
2023/04/27 00:33:41;;;;;;;3.97;3.77;;;6.80;59.70;;;;;;6242566;28;20243;-84
2023/04/27 00:36:44;;;;;;;4.43;3.93;;;6.80;59.50;;;;;;6251425;28;20235;-82
2023/04/27 00:39:48;;;;;;;6.67;4.37;;;6.80;59.80;;;;;;6264158;28;20368;-81
2023/04/27 00:42:52;;;;;;;5.40;4.80;;;6.80;59.50;;;;;;6263168;28;20237;-81
2023/04/27 00:45:55;;;;;;;4.53;4.27;;;6.70;59.30;;;;;;6255262;28;20238;-82
2023/04/27 00:49:00;;;;;;;4.57;4.27;;;6.70;59.70;;;;;;6271051;28;20210;-82
2023/04/27 00:52:03;;;;;;;4.93;4.50;;;6.70;59.80;;;;;;6262849;28;20241;-81
2023/04/27 00:55:08;;;;;;;8.20;4.20;;;6.70;59.80;;;;;;6266027;28;20215;-82
2023/04/27 00:58:12;;;;;;;4.57;4.27;;;6.70;59.70;;;;;;6271589;28;20234;-83
2023/04/27 01:01:16;;;;;;;4.60;4.27;;;6.60;60.00;;;;;;6246378;28;20241;-82
2023/04/27 01:04:20;;;;;;;4.77;4.30;;;6.60;60.00;;;;;;6246586;28;20346;-82
2023/04/27 01:07:26;;;;;;;6.30;4.50;;;6.60;60.10;;;;;;6240446;28;20258;-85
2023/04/27 01:10:29;;;;;;;4.90;4.60;;;6.60;60.30;;;;;;6241120;28;20227;-84
2023/04/27 01:13:33;;;;;;;4.77;4.23;;;6.60;60.60;;;;;;6236508;28;20309;-84
2023/04/27 01:16:37;;;;;;;5.23;4.27;;;6.70;60.10;;;;;;6240825;28;20563;-83
2023/04/27 01:19:41;;;;;;;8.93;4.47;;;6.60;60.20;;;;;;6241011;28;20321;-84
2023/04/27 01:22:44;;;;;;;4.87;4.13;;;6.60;60.00;;;;;;6239725;28;20253;-85
2023/04/27 01:25:48;;;;;;;5.90;4.47;;;6.60;60.10;;;;;;6241992;28;20241;-86
2023/04/27 01:28:51;;;;;;;5.97;4.30;;;6.50;60.20;;;;;;6248858;28;20242;-81
2023/04/27 01:31:55;;;;;;;6.03;4.43;;;6.60;60.30;;;;;;6264983;28;20227;-83
2023/04/27 01:34:58;;;;;;;5.10;4.70;;;6.50;60.50;;;;;;6270888;28;20257;-81
2023/04/27 01:38:01;;;;;;;4.87;4.37;;;6.50;60.90;;;;;;6273891;28;20213;-85
2023/04/27 01:41:08;;;;;;;4.93;4.40;;;6.50;61.10;;;;;;6267950;28;20253;-81
2023/04/27 01:44:11;;;;;;;4.83;4.40;;;6.50;61.40;;;;;;6262122;28;20819;-82
2023/04/27 01:47:16;;;;;;;4.97;4.60;;;6.50;61.40;;;;;;6269024;28;20243;-84
2023/04/27 01:50:19;;;;;;;4.93;4.43;;;6.50;61.40;;;;;;6247200;28;20727;-86
2023/04/27 01:53:22;;;;;;;5.20;4.57;;;6.50;61.50;;;;;;6235345;28;20244;-84
2023/04/27 01:56:27;;;;;;;5.33;4.20;;;6.40;61.50;;;;;;6241140;28;21509;-83
2023/04/27 01:59:30;;;;;;;4.63;4.40;;;6.40;61.20;;;;;;6240809;28;20230;-86
2023/04/27 02:02:33;;;;;;;4.47;4.20;;;6.40;61.30;;;;;;6240542;28;20231;-84
2023/04/27 02:05:37;;;;;;;4.80;4.50;;;6.40;61.70;;;;;;6240940;28;20226;-86
2023/04/27 02:08:40;;;;;;;6.13;4.70;;;6.40;61.60;;;;;;6232863;28;20314;-86
2023/04/27 02:11:45;;;;;;;4.93;4.40;;;6.40;61.50;;;;;;6239470;28;20261;-84
2023/04/27 02:14:48;;;;;;;4.27;3.93;;;6.40;61.40;;;;;;6240155;28;20253;-87
2023/04/27 02:17:51;;;;;;;4.80;4.47;;;6.30;61.50;;;;;;6237903;28;20417;-85
2023/04/27 02:20:57;;;;;;;7.67;4.53;;;6.30;61.60;;;;;;6240360;28;20755;-84
2023/04/27 02:24:00;;;;;;;5.10;4.40;;;6.20;61.70;;;;;;6239564;28;20230;-86
2023/04/27 02:27:05;;;;;;;6.10;4.07;;;6.30;61.30;;;;;;6238268;28;20813;-86
2023/04/27 02:30:11;;;;;;;8.10;4.77;;;6.30;61.20;;;;;;6256153;28;20238;-86
2023/04/27 02:33:15;;;;;;;6.57;4.63;;;6.30;61.10;;;;;;6248917;28;20777;-85
2023/04/27 02:36:18;;;;;;;7.87;4.50;;;6.30;61.10;;;;;;6235511;28;20246;-85
2023/04/27 02:39:21;;;;;;;7.13;4.60;;;6.30;61.10;;;;;;6238825;28;20261;-86
2023/04/27 02:42:26;;;;;;;4.40;4.00;;;6.30;61.20;;;;;;6239243;28;20322;-84
2023/04/27 02:45:29;;;;;;;4.83;4.53;;;6.30;60.80;;;;;;6238225;28;20436;-84
2023/04/27 02:48:32;;;;;;;4.90;4.57;;;6.30;60.70;;;;;;6239058;28;20229;-86
2023/04/27 02:51:35;;;;;;;5.23;4.43;;;6.20;60.60;;;;;;6239003;28;20238;-83
2023/04/27 02:54:39;;;;;;;5.73;4.10;;;6.20;60.70;;;;;;6236497;28;20226;-87
2023/04/27 02:57:43;;;;;;;4.63;4.33;;;6.10;60.70;;;;;;6235648;28;20230;-84
2023/04/27 03:00:47;;;;;;;7.20;4.10;;;6.10;60.80;;;;;;6239416;28;20238;-87
2023/04/27 03:03:51;;;;;;;7.73;4.43;;;6.00;61.00;;;;;;6236552;28;20238;-82
2023/04/27 03:06:54;;;;;;;5.80;4.07;;;6.00;61.10;;;;;;6241553;28;20235;-84
2023/04/27 03:09:57;;;;;;;4.63;4.33;;;6.00;61.00;;;;;;6237515;28;20245;-85
2023/04/27 03:13:01;;;;;;;4.83;4.60;;;6.00;60.80;;;;;;6240346;28;20322;-84
2023/04/27 03:16:05;;;;;;;6.80;4.43;;;5.90;61.00;;;;;;6237430;28;20226;-83
2023/04/27 03:19:08;;;;;;;5.40;4.23;;;5.90;61.30;;;;;;6256874;28;20780;-81
2023/04/27 03:22:12;;;;;;;5.30;4.27;;;5.90;60.90;;;;;;6269600;28;20493;-81
2023/04/27 03:25:15;;;;;;;5.00;4.60;;;5.90;60.80;;;;;;6220693;28;20277;-84
2023/04/27 03:28:20;;;;;;;4.13;3.90;;;5.80;61.20;;;;;;6232320;28;20237;-82
2023/04/27 03:31:23;;;;;;;5.03;4.40;;;5.80;61.40;;;;;;6231454;28;20281;-79
2023/04/27 03:34:26;;;;;;;4.80;4.40;;;5.90;61.40;;;;;;6227547;28;20287;-79
2023/04/27 03:37:30;;;;;;;7.57;4.40;;;5.80;61.40;;;;;;6227417;28;20238;-80
2023/04/27 03:40:33;;;;;;;6.77;4.70;;;5.90;61.20;;;;;;6231987;28;20246;-81
2023/04/27 03:43:37;;;;;;;5.33;4.83;;;5.90;61.20;;;;;;6238885;28;20230;-82
2023/04/27 03:46:40;;;;;;;5.33;4.83;;;5.80;61.30;;;;;;6247922;28;20250;-80
2023/04/27 03:49:43;;;;;;;5.37;4.87;;;5.90;61.30;;;;;;6243323;28;20236;-80
2023/04/27 03:52:46;;;;;;;5.97;4.77;;;5.80;61.60;;;;;;6261375;28;20229;-81
2023/04/27 03:55:49;;;;;;;5.20;4.80;;;5.80;61.60;;;;;;6244632;28;20241;-81
2023/04/27 03:58:54;;;;;;;5.37;4.87;;;5.90;61.80;;;;;;6248857;28;20246;-80
2023/04/27 04:01:57;;;;;;;5.23;4.73;;;5.90;61.90;;;;;;6249508;28;20242;-79
2023/04/27 04:05:03;;;;;;;6.07;5.20;;;5.90;61.70;;;;;;6249363;28;20281;-78
2023/04/27 04:08:06;;;;;;;6.70;4.40;;;5.90;61.50;;;;;;6243299;28;20239;-79
2023/04/27 04:11:09;;;;;;;6.27;4.77;;;6.00;61.60;;;;;;6242744;28;20577;-80
2023/04/27 04:14:14;;;;;;;4.50;4.20;;;5.90;61.80;;;;;;6245276;28;20356;-79
2023/04/27 04:17:17;;;;;;;8.27;4.70;;;5.90;62.00;;;;;;6248082;28;20325;-80
2023/04/27 04:20:22;;;;;;;5.90;4.47;;;5.90;61.80;;;;;;6246738;28;20475;-78
2023/04/27 04:23:26;;;;;;;4.40;4.17;;;6.00;61.80;;;;;;6238632;28;20238;-80
2023/04/27 04:26:29;;;;;;;4.90;4.37;;;6.00;61.70;;;;;;6252473;28;20277;-79
2023/04/27 04:29:34;;;;;;;4.67;4.10;;;6.00;61.60;;;;;;6234348;28;20245;-78
2023/04/27 04:32:37;;;;;;;4.63;4.23;;;6.00;61.60;;;;;;6236640;28;20733;-79
2023/04/27 04:35:41;;;;;;;6.10;4.40;;;6.00;61.20;;;;;;6251128;28;20301;-81
2023/04/27 04:38:44;;;;;;;9.87;4.67;;;5.90;61.40;;;;;;6244699;28;20622;-80
2023/04/27 04:41:48;;;;;;;6.73;4.60;;;6.00;61.40;;;;;;6247555;28;20245;-80
2023/04/27 04:44:52;;;;;;;4.80;4.40;;;6.00;61.10;;;;;;6253454;28;20717;-80
2023/04/27 04:47:55;;;;;;;4.70;4.40;;;6.10;61.00;;;;;;6251660;28;20231;-81
2023/04/27 04:50:59;;;;;;;6.17;4.70;;;6.10;60.70;;;;;;6260630;28;20420;-79
2023/04/27 04:54:02;;;;;;;6.13;5.00;;;6.10;60.30;;;;;;6257187;28;20250;-80
2023/04/27 04:57:06;;;;;;;5.43;4.90;;;6.20;60.70;;;;;;6260636;28;20313;-81
2023/04/27 05:00:12;;;;;;;5.43;5.03;;;6.20;60.90;;;;;;6256755;28;20461;-79
2023/04/27 05:03:15;;;;;;;7.87;5.37;;;6.20;60.90;;;;;;6241728;28;20238;-78
2023/04/27 05:06:19;;;;;;;6.27;5.00;;;6.30;60.80;;;;;;6233917;28;20246;-80
2023/04/27 05:09:24;;;;;;;8.97;5.40;;;6.40;60.50;;;;;;6240766;28;20250;-81
2023/04/27 05:12:27;;;;;;;5.17;4.80;;;6.40;60.50;;;;;;6239964;28;20273;-81
2023/04/27 05:15:31;;;;;;;6.57;5.43;;;6.50;60.20;;;;;;6235938;28;20616;-81
2023/04/27 05:18:34;;;;;;;7.40;5.07;;;6.60;60.20;;;;;;6240642;28;20234;-80
2023/04/27 05:21:38;;;;;;;7.30;5.20;;;6.60;60.30;;;;;;6241540;28;20739;-79
2023/04/27 05:24:41;;;;;;;4.90;4.60;;;6.70;60.10;;;;;;6235642;28;20226;-81
2023/04/27 05:27:44;;;;;;;6.60;5.00;;;6.70;59.90;;;;;;6239864;28;20238;-79
2023/04/27 05:30:48;;;;;;;5.13;4.73;;;6.70;60.20;;;;;;6239192;28;20235;-80
2023/04/27 05:33:51;;;;;;;13.17;5.20;;;6.80;60.40;;;;;;6237805;28;20231;-80
2023/04/27 05:36:54;;;;;;;5.17;4.70;;;6.90;59.70;;;;;;6252691;28;20249;-80
2023/04/27 05:39:58;;;;;;;4.73;4.40;;;7.00;59.60;;;;;;6248777;28;20230;-79
2023/04/27 05:43:04;;;;;;;5.43;4.90;;;7.00;59.40;;;;;;6245808;28;20231;-82
2023/04/27 05:46:08;;;;;;;6.83;5.00;;;7.00;59.10;;;;;;6252299;28;20488;-80
2023/04/27 05:49:11;;;;;;;10.47;4.97;;;7.20;59.00;;;;;;6244987;28;20253;-81
2023/04/27 05:52:15;;;;;;;6.87;5.13;;;7.30;58.50;;;;;;6237878;28;20321;-79
2023/04/27 05:55:18;;;;;;;7.80;4.50;;;7.20;58.50;;;;;;6251614;28;20254;-79
2023/04/27 05:58:21;;;;;;;4.80;4.40;;;7.20;59.20;;;;;;6239110;28;20234;-79
2023/04/27 06:01:26;;;;;;;5.77;4.53;;;7.00;58.50;;;;;;6242673;28;20734;-82
2023/04/27 06:04:31;;;;;;;7.50;5.17;;;7.20;58.50;;;;;;6263872;28;20230;-79
2023/04/27 06:07:36;;;;;;;5.30;4.70;;;7.30;58.30;;;;;;6254596;28;20225;-81
2023/04/27 06:10:39;;;;;;;6.77;4.63;;;7.40;58.20;;;;;;6257121;28;21588;-80
2023/04/27 06:13:42;;;;;;;5.73;4.37;;;7.40;58.20;;;;;;6231568;28;20321;-80
2023/04/27 06:16:47;;;;;;;8.00;4.60;;;7.20;58.70;;;;;;6237258;28;20230;-80
2023/04/27 06:19:50;;;;;;;5.97;4.50;;;7.40;58.70;;;;;;6239376;28;20428;-80
2023/04/27 06:22:55;;;;;;;7.47;4.67;;;7.80;58.00;;;;;;6238157;28;20234;-80
2023/04/27 06:25:58;;;;;;;8.20;4.57;;;8.00;57.00;;;;;;6242645;28;20237;-79
2023/04/27 06:29:02;;;;;;;6.30;4.07;;;8.40;56.30;;;;;;6241745;28;20709;-80
2023/04/27 06:32:07;;;;;;;4.03;3.63;;;8.70;56.10;;;;;;6256168;28;20231;-79
2023/04/27 06:35:11;;;;;;;5.03;3.70;;;8.80;55.10;;;;;;6249277;28;20237;-79
2023/04/27 06:38:14;;;;;;;4.17;3.87;;;8.90;55.10;;;;;;6250801;28;20241;-79
2023/04/27 06:41:17;;;;;;;4.93;4.00;;;9.00;55.30;;;;;;6255448;28;20250;-80
2023/04/27 06:44:20;;;;;;;3.80;3.53;;;9.10;54.70;;;;;;6262974;28;20238;-80
2023/04/27 06:47:25;;;;;;;3.83;3.63;;;9.00;54.60;;;;;;6260576;28;20277;-79
2023/04/27 06:50:29;;;;;;;3.83;3.63;;;9.10;54.20;;;;;;6263619;28;20238;-80
2023/04/27 06:53:32;;;;;;;6.57;4.00;;;9.20;53.50;;;;;;6258047;28;20487;-79
2023/04/27 06:56:36;;;;;;;4.77;3.70;;;9.40;53.20;;;;;;6262631;28;20244;-81
2023/04/27 06:59:39;;;;;;;3.80;3.60;;;9.40;52.90;;;;;;6258871;28;20313;-80
2023/04/27 07:02:43;;;;;;;4.53;3.50;;;9.50;53.00;;;;;;6259637;28;20249;-79
2023/04/27 07:09:40;;;;;;;4.83;4.00;;;9.30;52.70;;;;;;6238723;28;20233;-80
2023/04/27 07:12:43;;;;;;;3.60;3.40;;;9.30;52.20;;;;;;6269975;28;20333;-81
2023/04/27 07:15:46;;;;;;;4.23;3.83;;;9.40;52.10;;;;;;6252930;28;20244;-81
2023/04/27 07:18:51;;;;;;;4.47;3.60;;;9.50;52.20;;;;;;6267138;28;20301;-80
2023/04/27 07:21:54;;;;;;;4.17;3.90;;;9.50;52.30;;;;;;6272838;28;20256;-81
2023/04/27 07:24:58;;;;;;;6.20;3.67;;;9.50;52.60;;;;;;6273987;28;20267;-82
2023/04/27 07:28:01;;;;;;;5.17;3.83;;;9.40;52.40;;;;;;6269232;28;20237;-82
2023/04/27 07:31:05;;;;;;;4.23;3.83;;;9.40;52.60;;;;;;6251031;28;20252;-81
2023/04/27 07:34:10;;;;;;;7.20;4.37;;;9.30;53.10;;;;;;6227855;28;20254;-81
2023/04/27 07:37:13;;;;;;;4.13;3.83;;;9.10;53.50;;;;;;6236557;28;20235;-80
2023/04/27 07:40:18;;;;;;;5.03;3.43;;;9.20;54.20;;;;;;6253103;28;20746;-79
2023/04/27 07:43:22;;;;;;;4.10;3.80;;;9.60;52.80;;;;;;6234890;28;20747;-80
2023/04/27 07:46:26;;;;;;;5.60;4.30;;;9.70;52.80;;;;;;6245205;28;20320;-80
2023/04/27 07:49:31;;;;;;;4.27;3.97;;;10.10;51.90;;;;;;6237195;28;20251;-80
2023/04/27 07:52:34;;;;;;;6.70;4.50;;;10.40;51.80;;;;;;6234591;28;20374;-79
2023/04/27 07:55:39;;;;;;;4.37;4.07;;;10.10;51.90;;;;;;6253920;28;20245;-79
2023/04/27 07:58:43;;;;;;;5.53;4.03;;;10.20;52.90;;;;;;6251075;28;20264;-81
2023/04/27 08:01:46;;;;;;;4.23;3.73;;;10.50;50.70;;;;;;6267017;28;20242;-80
2023/04/27 08:04:52;;;;;;;6.23;3.63;;;10.40;50.00;;;;;;6269976;28;20286;-82
2023/04/27 08:07:55;;;;;;;4.30;3.17;;;10.60;50.60;;;;;;6273170;28;20293;-81
2023/04/27 08:10:59;;;;;;;4.50;4.07;;;10.50;49.90;;;;;;6255529;28;20592;-79
2023/04/27 08:14:03;;;;;;;4.53;3.60;;;10.40;50.00;;;;;;6258126;28;20249;-80
2023/04/27 08:17:06;;;;;;;6.50;4.00;;;10.30;50.20;;;;;;6260075;28;20242;-81
2023/04/27 08:20:12;;;;;;;4.00;3.67;;;10.30;50.30;;;;;;6244607;28;20235;-82
2023/04/27 08:23:15;;;;;;;4.40;4.10;;;10.30;50.50;;;;;;6256413;28;20222;-79
2023/04/27 08:26:18;;;;;;;4.23;3.87;;;10.20;50.50;;;;;;6250706;28;20612;-80
2023/04/27 08:29:21;;;;;;;5.03;3.53;;;10.20;50.70;;;;;;6256373;28;20248;-78
2023/04/27 08:32:30;;;;;;;4.27;3.80;;;10.10;50.70;;;;;;6244757;28;20232;-80
2023/04/27 08:35:35;;;;;;;4.40;4.10;;;10.20;49.70;;;;;;6247553;28;20317;-81
2023/04/27 08:38:38;;;;;;;4.63;4.27;;;9.90;50.30;;;;;;6240455;28;20637;-82
2023/04/27 08:41:43;;;;;;;4.67;4.10;;;9.50;50.30;;;;;;6251684;28;20242;-80
2023/04/27 08:44:46;;;;;;;5.50;4.60;;;9.20;50.80;;;;;;6240590;28;23114;-80
2023/04/27 08:47:51;;;;;;;4.90;4.50;;;9.20;51.10;;;;;;6259199;28;20242;-81
2023/04/27 08:51:02;;;;;;;4.37;3.90;;;9.00;50.80;;;;;;6260850;28;20282;-80
2023/04/27 08:54:05;;;;;;;4.97;4.60;;;9.10;50.70;;;;;;6267026;28;20236;-81
2023/04/27 08:57:12;;;;;;;4.20;4.00;;;9.10;50.50;;;;;;6274612;28;20442;-76
2023/04/27 09:00:16;;;;;;;4.20;3.77;;;9.10;50.30;;;;;;6268431;28;20408;-82
2023/04/27 09:03:23;;;;;;;4.30;4.00;;;9.10;50.30;;;;;;6277266;28;20248;-81
2023/04/27 09:06:33;;;;;;;4.47;4.03;;;9.20;50.70;;;;;;6273164;28;20238;-79
2023/04/27 09:09:36;;;;;;;4.70;4.00;;;9.40;50.40;;;;;;6239492;28;20448;-81
2023/04/27 09:12:39;;;;;;;4.10;3.83;;;9.40;51.20;;;;;;6239427;28;20282;-79
2023/04/27 09:15:44;;;;;;;5.43;4.20;;;9.60;50.30;;;;;;6238657;28;20751;-80
2023/04/27 09:18:50;;;;;;;4.50;4.10;;;9.60;49.40;;;;;;6229297;28;20226;-81
2023/04/27 09:22:06;;;;;;;5.30;4.90;;;9.70;50.10;;;;;;6247289;28;20231;-81
2023/04/27 09:25:09;;;;;;;4.53;4.10;;;10.00;50.10;;;;;;6245851;28;20328;-83
2023/04/27 09:28:15;;;;;;;4.00;3.73;;;10.40;48.60;;;;;;6247759;28;20309;-82
2023/04/27 09:31:19;;;;;;;4.53;4.10;;;10.60;48.70;;;;;;6247226;28;20493;-80
2023/04/27 09:34:22;;;;;;;4.87;3.73;;;10.60;49.20;;;;;;6230087;28;20239;-82
2023/04/27 09:37:28;;;;;;;9.00;4.17;;;10.40;49.20;;;;;;6251610;28;20239;-78
2023/04/27 09:40:32;;;;;;;6.67;3.50;;;10.30;50.00;;;;;;6259483;28;20238;-80
2023/04/27 09:43:37;;;;;;;4.77;3.83;;;10.00;50.30;;;;;;6257298;28;20366;-81
2023/04/27 09:46:44;;;;;;;3.90;3.60;;;10.00;50.10;;;;;;6231216;28;20265;-79
2023/04/27 09:49:49;;;;;;;4.03;3.77;;;10.00;49.20;;;;;;6235002;28;20498;-79
2023/04/27 09:52:54;;;;;;;4.13;3.80;;;10.10;49.70;;;;;;6262586;28;20238;-82
2023/04/27 09:56:10;;;;;;;4.33;4.07;;;10.30;49.90;;;;;;6259569;28;20329;-82
2023/04/27 09:59:48;;;;;;;4.10;3.60;;;10.30;50.10;;;;;;6262500;28;20352;-80
2023/04/27 10:03:15;;;;;;;4.10;3.67;;;10.20;48.50;;;;;;6237581;28;20250;-79
2023/04/27 10:06:53;;;;;;;4.10;3.77;;;10.30;48.00;;;;;;6247128;28;20230;-83
2023/04/27 10:10:03;;;;;;;4.37;3.90;;;10.40;48.70;;;;;;6252765;28;20748;-80
2023/04/27 10:13:07;;;;;;;4.50;3.60;;;10.60;48.40;;;;;;6271989;28;20230;-80
2023/04/27 10:16:20;;;;;;;5.70;3.57;;;10.90;47.00;;;;;;6266350;28;20248;-80
2023/04/27 10:19:24;;;;;;;3.73;3.30;;;10.90;46.50;;;;;;6268646;28;20880;-82
2023/04/27 10:22:41;;;;;;;3.73;3.53;;;10.90;46.50;;;;;;6279012;28;20709;-83
2023/04/27 10:25:46;;;;;;;3.70;3.33;;;10.90;46.10;;;;;;6256544;28;20230;-80
2023/04/27 10:28:58;;;;;;;4.27;3.53;;;10.70;45.00;;;;;;6267622;28;20733;-81
2023/04/27 10:32:06;;;;;;;3.47;3.23;;;10.70;45.50;;;;;;6260723;28;20270;-80
2023/04/27 10:35:10;;;;;;;3.60;3.30;;;10.70;45.90;;;;;;6268329;28;20239;-80
2023/04/27 10:38:16;;;;;;;3.20;3.03;;;11.00;46.30;;;;;;6263561;28;20230;-81
2023/04/27 10:41:22;;;;;;;3.63;3.33;;;11.30;45.90;;;;;;6261585;28;20320;-82
2023/04/27 10:44:27;;;;;;;4.00;3.27;;;11.50;45.60;;;;;;6270716;28;20250;-80
2023/04/27 10:47:38;;;;;;;5.23;3.20;;;11.40;46.10;;;;;;6261362;28;20242;-83
2023/04/27 10:50:43;;;;;;;5.00;3.40;;;11.20;46.10;;;;;;6263161;28;20248;-81
2023/04/27 10:53:52;;;;;;;4.37;3.20;;;11.50;46.20;;;;;;6276430;28;20246;-80
2023/04/27 10:57:02;;;;;;;2.90;2.80;;;11.60;46.10;;;;;;6274289;28;20722;-81
2023/04/27 11:00:09;;;;;;;2.97;2.87;;;11.90;45.10;;;;;;6249845;28;20309;-82
2023/04/27 11:03:15;;;;;;;2.83;2.73;;;12.00;43.50;;;;;;6246740;28;20240;-81
2023/04/27 11:06:19;;;;;;;3.13;2.83;;;12.30;43.80;;;;;;6263257;28;20246;-80
2023/04/27 11:09:28;;;;;;;3.27;3.07;;;12.40;42.40;;;;;;6267628;28;20234;-81
2023/04/27 11:12:32;;;;;;;3.13;2.90;;;12.30;42.90;;;;;;6268285;28;20317;-79
2023/04/27 11:15:46;;;;;;;3.60;3.27;;;12.00;42.30;;;;;;6257459;28;20243;-81
2023/04/27 11:18:49;;;;;;;4.90;3.20;;;11.50;43.60;;;;;;6256035;28;20234;-80
2023/04/27 11:21:52;;;;;;;4.83;3.73;;;11.10;44.90;;;;;;6242244;28;20238;-82
2023/04/27 11:24:56;;;;;;;3.53;3.37;;;10.80;45.50;;;;;;6252323;28;20321;-83
2023/04/27 11:28:00;;;;;;;3.53;3.43;;;10.50;46.20;;;;;;6244478;28;20231;-81
2023/04/27 11:31:04;;;;;;;5.37;4.57;;;10.30;46.00;;;;;;6248946;28;20626;-82
2023/04/27 11:34:08;;;;;;;5.83;5.40;;;10.20;45.40;;;;;;6261051;28;20252;-80
2023/04/27 11:37:22;;;;;;;4.77;3.23;;;10.30;45.00;;;;;;6272080;28;20753;-79
2023/04/27 11:40:27;;;;;;;3.03;2.93;;;10.50;45.10;;;;;;6267236;28;20246;-80
2023/04/27 11:43:32;;;;;;;3.30;3.13;;;10.80;44.90;;;;;;6265300;28;20265;-80
2023/04/27 11:46:40;;;;;;;7.07;3.03;;;11.10;44.10;;;;;;6270802;28;20230;-81
2023/04/27 11:49:47;;;;;;;3.73;3.30;;;11.20;44.40;;;;;;6260811;28;20865;-81
2023/04/27 11:52:51;;;;;;;4.20;4.00;;;11.10;44.70;;;;;;6263644;28;20288;-82
2023/04/27 11:55:54;;;;;;;4.43;3.37;;;11.10;44.60;;;;;;6265104;28;20859;-82
2023/04/27 11:58:59;;;;;;;4.10;4.00;;;11.10;45.20;;;;;;6263968;28;20617;-81
2023/04/27 12:02:02;;;;;;;3.50;3.33;;;11.20;44.70;;;;;;6273451;28;20234;-82
2023/04/27 12:05:08;;;;;;;4.83;3.20;;;11.40;44.90;;;;;;6273531;28;20248;-80
2023/04/27 12:08:11;;;;;;;3.30;3.20;;;11.50;44.10;;;;;;6270132;28;20237;-81
2023/04/27 12:11:15;;;;;;;2.83;2.73;;;11.70;44.70;;;;;;6270953;28;21047;-80
2023/04/27 12:14:19;;;;;;;3.47;3.13;;;12.10;44.20;;;;;;6264526;28;20733;-83
2023/04/27 12:17:22;;;;;;;3.97;3.10;;;12.30;44.10;;;;;;6253934;28;20239;-80
2023/04/27 12:20:27;;;;;;;3.10;3.00;;;12.10;43.50;;;;;;6279631;28;20233;-84
2023/04/27 12:23:30;;;;;;;3.00;2.80;;;11.90;43.10;;;;;;6296565;28;20263;-81
2023/04/27 12:26:34;;;;;;;2.90;2.70;;;11.80;43.60;;;;;;6294326;28;20229;-84
2023/04/27 12:29:38;;;;;;;2.97;2.77;;;11.70;43.30;;;;;;6279071;28;20232;-84
2023/04/27 12:32:41;;;;;;;3.20;2.90;;;11.70;43.80;;;;;;6288571;28;20341;-83
2023/04/27 12:35:44;;;;;;;3.50;3.20;;;11.90;43.30;;;;;;6299050;28;20290;-83
2023/04/27 12:38:47;;;;;;;3.03;2.93;;;11.90;44.00;;;;;;6295075;28;20282;-83
2023/04/27 12:41:51;;;;;;;3.00;2.90;;;11.70;44.00;;;;;;6295727;28;20228;-83
2023/04/27 12:44:55;;;;;;;3.20;3.10;;;11.50;44.60;;;;;;6290051;28;20237;-83
2023/04/27 12:47:58;;;;;;;5.63;3.40;;;11.50;45.10;;;;;;6286584;28;20222;-84
2023/04/27 12:51:06;;;;;;;3.73;3.47;;;11.70;43.70;;;;;;6280639;28;20224;-83
2023/04/27 12:54:11;;;;;;;3.10;3.00;;;12.00;44.20;;;;;;6285003;28;20242;-82
2023/04/27 12:57:15;;;;;;;3.37;3.00;;;12.00;43.90;;;;;;6266111;28;20589;-81
2023/04/27 13:00:20;;;;;;;3.13;2.93;;;12.30;43.80;;;;;;6269396;28;20239;-80
2023/04/27 13:03:23;;;;;;;2.53;2.53;;;12.50;43.30;;;;;;6271021;28;20230;-83
2023/04/27 13:06:27;;;;;;;3.00;2.90;;;12.60;42.90;;;;;;6272186;28;20234;-84
2023/04/27 13:09:30;;;;;;;3.90;3.07;;;12.60;43.40;;;;;;6251289;28;20285;-80
2023/04/27 13:12:33;;;;;;;3.10;3.00;;;12.80;43.70;;;;;;6269296;28;20237;-81
2023/04/27 13:15:38;;;;;;;3.83;3.17;;;12.90;43.20;;;;;;6274607;28;20234;-78
2023/04/27 13:18:48;;;;;;;4.57;2.80;;;12.70;43.50;;;;;;6283117;28;20240;-82
2023/04/27 13:21:51;;;;;;;4.03;3.07;;;12.80;43.90;;;;;;6271981;28;20234;-82
2023/04/27 13:24:54;;;;;;;4.43;2.43;;;12.70;44.00;;;;;;6288747;28;20763;-81
2023/04/27 13:27:58;;;;;;;2.63;2.50;;;12.70;43.40;;;;;;6290871;28;20224;-82
2023/04/27 13:31:02;;;;;;;2.43;2.33;;;12.50;42.90;;;;;;6304378;28;20285;-84
2023/04/27 13:34:06;;;;;;;2.50;2.43;;;12.90;42.50;;;;;;6290248;28;20215;-83
2023/04/27 13:37:09;;;;;;;2.53;2.50;;;13.30;42.10;;;;;;6297316;28;20261;-83
2023/04/27 13:40:13;;;;;;;3.10;2.90;;;13.60;42.20;;;;;;6299564;28;20232;-84
2023/04/27 13:43:16;;;;;;;3.73;2.87;;;13.50;41.40;;;;;;6295265;28;20493;-83
2023/04/27 13:46:20;;;;;;;2.63;2.50;;;13.50;42.40;;;;;;6284664;28;20244;-85
2023/04/27 13:49:23;;;;;;;2.47;2.30;;;13.80;41.90;;;;;;6282142;28;20253;-83
2023/04/27 13:52:26;;;;;;;2.37;2.27;;;13.90;40.60;;;;;;6296863;28;20872;-82
2023/04/27 13:55:29;;;;;;;2.57;2.47;;;13.90;40.30;;;;;;6274326;28;20244;-82
2023/04/27 13:58:32;;;;;;;2.47;2.27;;;13.70;40.50;;;;;;6263510;28;20242;-83
2023/04/27 14:01:38;;;;;;;2.47;2.37;;;13.30;39.60;;;;;;6251126;28;20226;-84
2023/04/27 14:04:42;;;;;;;2.20;2.10;;;13.10;40.00;;;;;;6256833;28;20250;-80
2023/04/27 14:07:45;;;;;;;2.70;2.60;;;12.90;40.80;;;;;;6264172;28;20226;-80
2023/04/27 14:10:49;;;;;;;2.40;2.30;;;12.90;40.30;;;;;;6271129;28;20700;-80
2023/04/27 14:13:52;;;;;;;2.60;2.50;;;12.80;41.00;;;;;;6255682;28;20292;-80
2023/04/27 14:16:56;;;;;;;2.30;2.20;;;13.00;41.10;;;;;;6287531;28;20249;-81
2023/04/27 14:20:00;;;;;;;2.60;2.40;;;13.20;41.10;;;;;;6269298;28;20241;-82
2023/04/27 14:23:04;;;;;;;2.43;2.33;;;13.40;41.90;;;;;;6269680;28;20718;-80
2023/04/27 14:26:09;;;;;;;3.40;2.37;;;13.10;41.30;;;;;;6273535;28;20758;-81
2023/04/27 14:29:12;;;;;;;2.67;2.50;;;13.10;41.40;;;;;;6269312;28;20258;-81
2023/04/27 14:32:16;;;;;;;2.43;2.33;;;13.10;41.60;;;;;;6265222;28;20248;-81
2023/04/27 14:35:22;;;;;;;2.50;2.40;;;13.00;41.50;;;;;;6270098;28;20310;-80
2023/04/27 14:38:25;;;;;;;3.77;2.80;;;12.90;42.20;;;;;;6267051;28;20244;-81
2023/04/27 14:41:28;;;;;;;2.67;2.57;;;12.80;42.10;;;;;;6268473;28;20241;-80
2023/04/27 14:44:32;;;;;;;2.77;2.57;;;12.40;42.30;;;;;;6281589;28;20245;-81
2023/04/27 14:47:37;;;;;;;3.63;2.77;;;12.10;43.40;;;;;;6275643;28;20245;-81
2023/04/27 14:50:40;;;;;;;3.60;2.77;;;12.10;42.80;;;;;;6278438;28;20246;-79
2023/04/27 14:53:43;;;;;;;2.73;2.63;;;12.10;43.50;;;;;;6271669;28;20269;-80
2023/04/27 14:56:46;;;;;;;3.93;2.90;;;12.30;43.30;;;;;;6263294;28;20244;-78
2023/04/27 14:59:50;;;;;;;2.77;2.57;;;12.10;43.30;;;;;;6283967;28;20241;-81
2023/04/27 15:02:54;;;;;;;3.10;2.90;;;12.20;43.70;;;;;;6285892;28;20285;-81
2023/04/27 15:05:57;;;;;;;2.90;2.60;;;12.00;43.20;;;;;;6290038;28;20274;-82
2023/04/27 15:09:01;;;;;;;3.93;3.63;;;11.90;43.40;;;;;;6285041;28;20281;-81
2023/04/27 15:12:06;;;;;;;4.17;2.83;;;11.90;44.10;;;;;;6275695;28;20238;-81
2023/04/27 15:15:11;;;;;;;2.73;2.67;;;11.90;43.60;;;;;;6275557;28;20541;-80
2023/04/27 15:18:16;;;;;;;3.07;2.87;;;11.90;43.60;;;;;;6264970;28;20234;-80
2023/04/27 15:21:19;;;;;;;2.73;2.63;;;11.80;43.40;;;;;;6272323;28;20265;-81
2023/04/27 15:24:22;;;;;;;2.70;2.60;;;11.80;43.70;;;;;;6277001;28;20332;-80
2023/04/27 15:27:26;;;;;;;3.40;3.10;;;11.80;43.50;;;;;;6289179;28;20224;-81
2023/04/27 15:30:30;;;;;;;3.13;2.87;;;11.70;44.00;;;;;;6286501;28;20256;-82
2023/04/27 15:33:34;;;;;;;3.03;2.97;;;11.70;43.80;;;;;;6289796;28;20233;-81
2023/04/27 15:36:38;;;;;;;3.50;3.10;;;11.70;43.90;;;;;;6276914;28;20286;-84
2023/04/27 15:39:42;;;;;;;3.03;2.77;;;11.70;43.80;;;;;;6295162;28;20233;-81
2023/04/27 15:42:45;;;;;;;3.13;2.93;;;11.70;44.10;;;;;;6270716;28;20250;-80
2023/04/27 15:45:48;;;;;;;4.00;2.70;;;11.80;43.80;;;;;;6286972;28;20236;-82
2023/04/27 15:48:55;;;;;;;3.20;3.00;;;11.70;43.70;;;;;;6291685;28;20248;-82
2023/04/27 15:51:58;;;;;;;3.33;3.10;;;11.70;43.60;;;;;;6289871;28;20293;-82
2023/04/27 15:55:03;;;;;;;3.47;3.30;;;11.50;43.90;;;;;;6295419;28;20237;-82
2023/04/27 15:58:06;;;;;;;3.77;3.27;;;11.40;44.40;;;;;;6296138;28;20252;-82
2023/04/27 16:01:09;;;;;;;2.90;2.80;;;11.20;44.40;;;;;;6297060;28;20233;-82
2023/04/27 16:04:14;;;;;;;3.53;3.23;;;11.30;44.40;;;;;;6295469;28;20234;-83
2023/04/27 16:07:17;;;;;;;3.67;3.30;;;11.40;44.60;;;;;;6288072;28;20230;-82
2023/04/27 16:10:20;;;;;;;3.37;3.20;;;11.50;44.50;;;;;;6287134;28;20229;-82